createdAt,value
2023-04-27T00:01:06.762Z,8.52
2023-04-27T00:03:34.777Z,10.30
2023-04-27T00:06:01.440Z,9.45
2023-04-27T00:08:28.238Z,10.15
2023-04-27T00:10:55.901Z,10.27
2023-04-27T00:13:22.690Z,17.55
2023-04-27T00:15:49.304Z,9.70
2023-04-27T00:18:15.954Z,10.00
2023-04-27T00:20:44.181Z,11.77
2023-04-27T00:23:10.757Z,10.48
2023-04-27T00:25:37.352Z,11.73
2023-04-27T00:28:04.360Z,11.23
2023-04-27T00:30:31.176Z,9.25
2023-04-27T00:32:57.823Z,8.95
2023-04-27T00:35:24.400Z,10.63
2023-04-27T00:37:53.602Z,10.52
2023-04-27T00:40:20.575Z,8.82
2023-04-27T00:42:47.215Z,9.90
2023-04-27T00:45:13.891Z,12.80
2023-04-27T00:47:41.519Z,11.20
2023-04-27T00:50:08.953Z,11.48
2023-04-27T00:52:36.241Z,10.82
2023-04-27T00:55:05.328Z,14.50
2023-04-27T00:57:33.344Z,9.20
2023-04-27T01:00:00.856Z,11.30
2023-04-27T01:02:29.178Z,13.63
2023-04-27T01:04:56.048Z,10.90
2023-04-27T01:07:25.530Z,10.35
2023-04-27T01:09:52.265Z,9.70
2023-04-27T01:12:20.240Z,11.95
2023-04-27T01:14:48.154Z,11.68
2023-04-27T01:17:14.771Z,10.40
2023-04-27T01:19:42.052Z,10.80
2023-04-27T01:22:09.886Z,14.40
2023-04-27T01:24:37.807Z,12.10
2023-04-27T01:27:05.218Z,10.48
2023-04-27T01:29:31.929Z,9.77
2023-04-27T01:31:58.619Z,10.20
2023-04-27T01:34:25.331Z,10.57
2023-04-27T01:36:51.893Z,14.10
2023-04-27T01:39:18.433Z,11.32
2023-04-27T01:41:46.412Z,11.93
2023-04-27T01:44:13.063Z,9.65
2023-04-27T01:46:39.771Z,9.98
2023-04-27T01:49:06.846Z,11.32
2023-04-27T01:51:34.065Z,10.23
2023-04-27T01:54:00.700Z,11.48
2023-04-27T01:56:27.300Z,11.73
2023-04-27T01:58:56.926Z,12.02
2023-04-27T02:01:24.254Z,12.23
2023-04-27T02:03:51.117Z,9.38
2023-04-27T02:06:17.870Z,13.40
2023-04-27T02:08:45.861Z,12.95
2023-04-27T02:11:12.422Z,8.70
2023-04-27T02:13:38.947Z,14.27
2023-04-27T02:16:07.715Z,15.48
2023-04-27T02:18:34.305Z,12.55
2023-04-27T02:21:00.881Z,9.63
2023-04-27T02:23:27.484Z,11.63
2023-04-27T02:25:54.105Z,14.60
2023-04-27T02:28:20.688Z,11.07
2023-04-27T02:30:47.632Z,11.57
2023-04-27T02:33:15.590Z,9.95
2023-04-27T02:35:42.191Z,12.30
2023-04-27T02:38:08.936Z,11.32
2023-04-27T02:40:37.648Z,10.02
2023-04-27T02:43:06.290Z,15.80
2023-04-27T02:45:36.950Z,10.35
2023-04-27T02:50:40.325Z,12.07
2023-04-27T02:53:06.995Z,11.60
2023-04-27T02:55:33.646Z,15.65
2023-04-27T02:58:00.226Z,11.73
2023-04-27T03:00:27.004Z,12.05
2023-04-27T03:02:53.758Z,11.63
2023-04-27T03:05:20.548Z,11.30
2023-04-27T03:07:48.610Z,11.30
2023-04-27T03:10:15.111Z,14.77
2023-04-27T03:12:43.374Z,14.10
2023-04-27T03:15:10.707Z,13.57
2023-04-27T03:17:37.468Z,7.80
2023-04-27T03:20:04.955Z,14.07
2023-04-27T03:22:31.777Z,10.20
2023-04-27T03:24:59.668Z,13.52
2023-04-27T03:27:26.302Z,14.20
2023-04-27T03:29:52.947Z,15.30
2023-04-27T03:32:19.656Z,12.02
2023-04-27T03:34:46.365Z,12.50
2023-04-27T03:37:13.162Z,10.05
2023-04-27T03:39:40.066Z,11.07
2023-04-27T03:42:09.678Z,12.25
2023-04-27T03:44:36.397Z,11.88
2023-04-27T03:47:03.245Z,12.65
2023-04-27T03:49:29.968Z,12.38
2023-04-27T03:51:56.590Z,11.65
2023-04-27T03:54:23.146Z,9.05
2023-04-27T03:56:49.864Z,11.43
2023-04-27T03:59:19.338Z,9.63
2023-04-27T04:01:49.304Z,11.07
2023-04-27T04:04:16.169Z,9.85
2023-04-27T04:06:42.995Z,13.07
2023-04-27T04:09:09.556Z,11.75
2023-04-27T04:11:36.264Z,9.95
2023-04-27T04:14:05.671Z,12.75
2023-04-27T04:16:34.686Z,9.30
2023-04-27T04:19:01.230Z,11.73
2023-04-27T04:21:27.863Z,12.02
2023-04-27T04:23:54.456Z,12.95
2023-04-27T04:26:21.059Z,12.07
2023-04-27T04:28:47.598Z,12.13
2023-04-27T04:31:14.215Z,15.18
2023-04-27T04:33:42.105Z,9.70
2023-04-27T04:36:09.187Z,11.23
2023-04-27T04:38:35.788Z,14.80
2023-04-27T04:41:02.650Z,15.70
2023-04-27T04:43:32.066Z,11.93
2023-04-27T04:46:01.308Z,20.67
2023-04-27T04:48:27.916Z,17.08
2023-04-27T04:50:56.048Z,13.27
2023-04-27T04:53:22.705Z,17.42
2023-04-27T04:55:49.228Z,20.15
2023-04-27T04:58:15.870Z,18.67
2023-04-27T05:00:42.433Z,19.33
2023-04-27T05:03:09.093Z,16.02
2023-04-27T05:05:35.850Z,14.15
2023-04-27T05:08:04.183Z,17.25
2023-04-27T05:10:30.723Z,14.43
2023-04-27T05:12:57.514Z,16.95
2023-04-27T05:15:24.125Z,18.40
2023-04-27T05:17:50.774Z,15.20
2023-04-27T05:20:17.592Z,14.48
2023-04-27T05:22:44.246Z,20.92
2023-04-27T05:25:12.444Z,16.40
2023-04-27T05:27:39.024Z,16.23
2023-04-27T05:30:06.730Z,17.20
2023-04-27T05:32:33.373Z,15.13
2023-04-27T05:35:00.005Z,15.98
2023-04-27T05:37:26.663Z,20.60
2023-04-27T05:39:53.304Z,21.20
2023-04-27T05:42:21.269Z,21.13
2023-04-27T05:44:47.879Z,18.98
2023-04-27T05:47:14.520Z,26.00
2023-04-27T05:49:41.071Z,19.05
2023-04-27T05:52:07.682Z,15.25
2023-04-27T05:54:34.255Z,16.38
2023-04-27T05:57:00.907Z,16.90
2023-04-27T05:59:28.873Z,21.08
2023-04-27T06:01:55.605Z,15.18
2023-04-27T06:04:22.400Z,12.23
2023-04-27T06:06:49.158Z,13.02
2023-04-27T06:09:15.791Z,17.25
2023-04-27T06:11:42.540Z,13.63
2023-04-27T06:14:09.212Z,15.80
2023-04-27T06:16:37.249Z,13.63
2023-04-27T06:19:03.983Z,13.48
2023-04-27T06:21:32.358Z,15.45
2023-04-27T06:23:59.023Z,17.30
2023-04-27T06:26:25.576Z,14.90
2023-04-27T06:28:52.374Z,18.65
2023-04-27T06:31:19.098Z,15.65
2023-04-27T06:33:47.077Z,11.65
2023-04-27T06:36:13.702Z,16.02
2023-04-27T06:38:40.322Z,12.50
2023-04-27T06:41:06.894Z,14.20
2023-04-27T06:43:33.541Z,14.82
2023-04-27T06:46:00.493Z,16.48
2023-04-27T06:48:27.113Z,12.13
2023-04-27T06:50:55.390Z,15.30
2023-04-27T06:53:22.065Z,14.18
2023-04-27T06:55:48.825Z,11.52
2023-04-27T06:58:15.452Z,16.35
2023-04-27T07:00:42.166Z,18.30
2023-04-27T07:03:08.969Z,14.38
2023-04-27T07:05:35.754Z,17.02
2023-04-27T07:08:07.167Z,12.68
2023-04-27T07:10:35.318Z,16.38
2023-04-27T07:13:01.923Z,12.23
2023-04-27T07:15:28.602Z,11.85
2023-04-27T07:17:55.179Z,18.35
2023-04-27T07:20:21.908Z,17.92
2023-04-27T07:22:48.517Z,11.70
2023-04-27T07:25:17.650Z,14.60
2023-04-27T07:27:44.326Z,13.40
2023-04-27T07:30:11.603Z,11.10
2023-04-27T07:32:39.497Z,10.50
2023-04-27T07:35:06.840Z,8.82
2023-04-27T07:37:33.500Z,11.32
2023-04-27T07:40:00.310Z,12.15
2023-04-27T07:42:28.246Z,13.25
2023-04-27T07:44:56.084Z,12.55
2023-04-27T07:47:22.661Z,14.63
2023-04-27T07:49:49.219Z,10.77
2023-04-27T07:52:15.849Z,13.07
2023-04-27T07:54:42.410Z,9.25
2023-04-27T07:57:09.411Z,14.20
2023-04-27T07:59:37.952Z,10.00
2023-04-27T08:02:18.281Z,10.38
2023-04-27T08:04:45.929Z,11.38
2023-04-27T08:07:12.973Z,8.05
2023-04-27T08:09:39.847Z,14.90
2023-04-27T08:12:06.978Z,11.43
2023-04-27T08:14:34.232Z,7.97
2023-04-27T08:17:02.588Z,6.50
2023-04-27T08:19:29.539Z,7.90
2023-04-27T08:21:56.137Z,9.05
2023-04-27T08:24:23.006Z,8.60
2023-04-27T08:26:50.805Z,7.32
2023-04-27T08:29:27.229Z,8.18
2023-04-27T08:31:56.879Z,7.57
2023-04-27T08:34:25.184Z,7.63
2023-04-27T08:36:51.755Z,8.73
2023-04-27T08:39:18.570Z,7.35
2023-04-27T08:41:45.306Z,9.88
2023-04-27T08:44:12.443Z,9.40
2023-04-27T08:46:39.622Z,8.20
2023-04-27T08:49:06.309Z,5.38
2023-04-27T08:51:34.577Z,7.90
2023-04-27T08:54:01.242Z,5.05
2023-04-27T08:56:29.288Z,8.52
2023-04-27T08:58:57.067Z,7.25
2023-04-27T09:01:24.860Z,5.10
2023-04-27T09:03:56.681Z,5.90
2023-04-27T09:06:30.332Z,6.63
2023-04-27T09:08:59.291Z,5.57
2023-04-27T09:11:30.520Z,5.28
2023-04-27T09:13:59.149Z,5.00
2023-04-27T09:16:27.116Z,5.85
2023-04-27T09:18:54.468Z,6.03
2023-04-27T09:21:24.856Z,4.30
2023-04-27T09:23:51.737Z,4.28
2023-04-27T09:26:24.122Z,4.65
2023-04-27T09:28:52.077Z,7.63
2023-04-27T09:31:19.031Z,6.63
2023-04-27T09:33:46.001Z,5.32
2023-04-27T09:36:13.613Z,5.18
2023-04-27T09:38:40.296Z,5.40
2023-04-27T09:41:08.692Z,7.07
2023-04-27T09:43:37.259Z,3.10
2023-04-27T09:46:04.364Z,6.32
2023-04-27T09:48:31.334Z,5.53
2023-04-27T09:50:57.970Z,5.65
2023-04-27T09:53:29.684Z,3.95
2023-04-27T09:56:11.120Z,7.00
2023-04-27T09:59:01.598Z,4.47
2023-04-27T10:01:37.393Z,5.55
2023-04-27T10:04:25.199Z,4.53
2023-04-27T10:06:59.055Z,5.53
2023-04-27T10:09:26.817Z,3.38
2023-04-27T10:11:54.893Z,3.95
2023-04-27T10:14:24.069Z,5.32
2023-04-27T10:16:52.527Z,2.28
2023-04-27T10:19:19.937Z,4.88
2023-04-27T10:21:54.377Z,3.50
2023-04-27T10:24:31.750Z,4.70
2023-04-27T10:27:01.697Z,4.30
2023-04-27T10:29:37.043Z,3.03
2023-04-27T10:32:07.064Z,2.78
2023-04-27T10:34:35.188Z,2.78
2023-04-27T10:37:05.725Z,4.18
2023-04-27T10:39:47.025Z,5.00
2023-04-27T10:42:26.220Z,4.63
2023-04-27T10:44:57.522Z,4.72
2023-04-27T10:47:24.503Z,3.17
2023-04-27T10:49:52.942Z,2.75
2023-04-27T10:52:21.770Z,3.25
2023-04-27T10:54:48.628Z,4.38
2023-04-27T10:57:15.294Z,3.45
2023-04-27T10:59:49.504Z,4.47
2023-04-27T11:02:17.732Z,3.20
2023-04-27T11:04:44.442Z,6.20
2023-04-27T11:07:11.187Z,3.83
2023-04-27T11:09:39.389Z,3.40
2023-04-27T11:12:07.448Z,4.38
2023-04-27T11:14:34.853Z,2.75
2023-04-27T11:17:01.452Z,3.60
2023-04-27T11:19:29.521Z,3.15
2023-04-27T11:22:03.183Z,2.45
2023-04-27T11:24:29.818Z,5.15
2023-04-27T11:26:56.478Z,3.90
2023-04-27T11:29:23.099Z,3.03
2023-04-27T11:31:51.391Z,3.35
2023-04-27T11:34:20.061Z,4.28
2023-04-27T11:37:07.104Z,4.20
2023-04-27T11:39:41.828Z,3.50
2023-04-27T11:42:15.529Z,4.03
2023-04-27T11:44:42.240Z,4.07
2023-04-27T11:47:09.068Z,5.45
2023-04-27T11:49:35.995Z,6.47
2023-04-27T11:52:04.624Z,3.63
2023-04-27T11:54:31.166Z,6.13
2023-04-27T11:57:04.977Z,5.95
2023-04-27T11:59:31.712Z,2.80
2023-04-27T12:01:58.335Z,3.28
2023-04-27T12:04:25.280Z,4.70
2023-04-27T12:06:51.998Z,4.70
2023-04-27T12:09:19.916Z,5.60
2023-04-27T12:11:46.606Z,3.60
2023-04-27T12:14:13.366Z,3.53
2023-04-27T12:16:40.191Z,3.70
2023-04-27T12:19:06.827Z,2.50
2023-04-27T12:21:33.538Z,2.88
2023-04-27T12:24:00.174Z,4.22
2023-04-27T12:26:28.116Z,5.20
2023-04-27T12:28:54.859Z,4.20
2023-04-27T12:31:21.741Z,3.60
2023-04-27T12:33:48.369Z,3.83
2023-04-27T12:36:14.959Z,3.03
2023-04-27T12:38:41.559Z,3.88
2023-04-27T12:41:08.278Z,3.50
2023-04-27T12:43:36.319Z,5.13
2023-04-27T12:46:03.226Z,4.13
2023-04-27T12:48:29.989Z,3.50
2023-04-27T12:50:56.968Z,3.75
2023-04-27T12:53:23.524Z,4.10
2023-04-27T12:55:50.181Z,2.50
2023-04-27T12:58:16.877Z,5.65
2023-04-27T13:00:44.955Z,4.78
2023-04-27T13:03:11.939Z,3.08
2023-04-27T13:05:38.541Z,3.60
2023-04-27T13:08:05.244Z,2.53
2023-04-27T13:10:32.455Z,3.65
2023-04-27T13:12:59.159Z,2.70
2023-04-27T13:15:25.737Z,3.75
2023-04-27T13:17:53.687Z,2.88
2023-04-27T13:20:20.440Z,6.90
2023-04-27T13:22:46.982Z,3.72
2023-04-27T13:25:13.742Z,5.05
2023-04-27T13:27:40.308Z,3.45
2023-04-27T13:30:08.346Z,2.47
2023-04-27T13:32:35.125Z,2.85
2023-04-27T13:35:03.098Z,3.22
2023-04-27T13:37:29.720Z,4.50
2023-04-27T13:40:01.257Z,3.67
2023-04-27T13:42:29.065Z,4.95
2023-04-27T13:44:55.785Z,2.50
2023-04-27T13:47:22.802Z,3.88
2023-04-27T13:49:49.333Z,3.72
2023-04-27T13:52:17.371Z,4.47
2023-04-27T13:54:43.988Z,5.05
2023-04-27T13:57:10.543Z,5.30
2023-04-27T13:59:37.177Z,4.72
2023-04-27T14:02:03.799Z,4.00
2023-04-27T14:04:30.450Z,4.07
2023-04-27T14:06:57.076Z,4.45
2023-04-27T14:09:25.155Z,5.43
2023-04-27T14:11:56.989Z,5.72
2023-04-27T14:14:24.384Z,2.90
2023-04-27T14:16:51.140Z,5.32
2023-04-27T14:19:17.849Z,3.97
2023-04-27T14:21:44.398Z,3.45
2023-04-27T14:24:10.963Z,5.20
2023-04-27T14:26:38.973Z,4.47
2023-04-27T14:29:05.535Z,4.60
2023-04-27T14:31:32.264Z,3.60
2023-04-27T14:33:58.894Z,4.15
2023-04-27T14:36:25.480Z,5.78
2023-04-27T14:38:52.054Z,3.33
2023-04-27T14:41:18.681Z,6.10
2023-04-27T14:43:46.614Z,3.42
2023-04-27T14:48:46.568Z,8.43
2023-04-27T14:51:13.370Z,6.70
2023-04-27T14:53:40.068Z,4.72
2023-04-27T14:56:07.389Z,4.68
2023-04-27T14:58:34.448Z,6.22
2023-04-27T15:01:02.688Z,3.90
2023-04-27T15:03:29.773Z,3.55
2023-04-27T15:05:56.555Z,3.67
2023-04-27T15:08:23.121Z,5.53
2023-04-27T15:10:49.974Z,4.57
2023-04-27T15:13:16.658Z,5.00
2023-04-27T15:15:43.310Z,7.05
2023-04-27T15:18:11.420Z,4.45
2023-04-27T15:20:38.100Z,5.00
2023-04-27T15:23:04.747Z,4.78
2023-04-27T15:25:31.333Z,5.00
2023-04-27T15:27:57.895Z,5.20
2023-04-27T15:30:24.474Z,5.45
2023-04-27T15:32:51.095Z,4.70
2023-04-27T15:35:19.232Z,5.53
2023-04-27T15:37:45.809Z,5.82
2023-04-27T15:40:12.688Z,5.45
2023-04-27T15:42:39.218Z,6.00
2023-04-27T15:45:09.286Z,6.63
2023-04-27T15:47:36.648Z,3.78
2023-04-27T15:50:03.820Z,5.75
2023-04-27T15:52:31.934Z,4.38
2023-04-27T15:54:58.503Z,6.68
2023-04-27T15:57:25.269Z,6.90
2023-04-27T15:59:51.872Z,10.43
2023-04-27T16:02:18.657Z,6.38
2023-04-27T16:04:45.378Z,10.90
2023-04-27T16:07:12.014Z,5.05
2023-04-27T16:09:40.180Z,4.93
2023-04-27T16:12:07.158Z,7.32
2023-04-27T16:14:33.671Z,8.93
2023-04-27T16:17:02.803Z,5.28
2023-04-27T16:19:29.489Z,5.00
2023-04-27T16:21:56.073Z,5.93
2023-04-27T16:24:22.690Z,5.20
2023-04-27T16:26:50.632Z,6.78
2023-04-27T16:29:17.274Z,6.93
2023-04-27T16:31:43.946Z,7.80
2023-04-27T16:34:10.686Z,6.82
2023-04-27T16:36:37.438Z,7.82
2023-04-27T16:39:04.109Z,9.25
2023-04-27T16:41:30.721Z,7.10
2023-04-27T16:43:58.722Z,6.75
2023-04-27T16:46:25.415Z,6.13
2023-04-27T16:48:52.055Z,4.60
2023-04-27T16:51:18.675Z,5.13
2023-04-27T16:53:45.399Z,8.73
2023-04-27T16:56:11.936Z,7.80
2023-04-27T16:58:38.583Z,6.05
2023-04-27T17:01:06.557Z,7.07
2023-04-27T17:03:33.270Z,9.48
2023-04-27T17:05:59.902Z,4.93
2023-04-27T17:08:26.509Z,5.55
2023-04-27T17:10:53.069Z,6.10
2023-04-27T17:13:19.683Z,5.28
2023-04-27T17:15:46.365Z,5.72
2023-04-27T17:18:14.355Z,4.68
2023-04-27T17:20:42.205Z,7.15
2023-04-27T17:23:08.989Z,4.97
2023-04-27T17:25:35.594Z,4.68
2023-04-27T17:28:02.225Z,6.20
2023-04-27T17:30:28.840Z,5.88
2023-04-27T17:32:55.550Z,6.55
2023-04-27T17:35:23.870Z,5.35
2023-04-27T17:37:51.483Z,7.10
2023-04-27T17:40:18.186Z,6.28
2023-04-27T17:42:44.954Z,7.75
2023-04-27T17:45:11.736Z,6.38
2023-04-27T17:47:38.384Z,8.35
2023-04-27T17:50:05.821Z,7.85
2023-04-27T17:52:33.791Z,6.88
2023-04-27T17:55:00.400Z,6.80
2023-04-27T17:57:26.959Z,8.52
2023-04-27T17:59:53.855Z,6.88
2023-04-27T18:02:20.579Z,12.18
2023-04-27T18:04:47.259Z,8.90
2023-04-27T18:07:13.886Z,7.30
2023-04-27T18:09:41.825Z,5.38
2023-04-27T18:12:08.415Z,9.30
2023-04-27T18:14:34.971Z,5.63
2023-04-27T18:17:01.584Z,5.60
2023-04-27T18:19:28.203Z,6.53
2023-04-27T18:21:54.887Z,5.90
2023-04-27T18:24:21.503Z,5.00
2023-04-27T18:26:49.496Z,4.97
2023-04-27T18:29:16.195Z,6.53
2023-04-27T18:31:42.880Z,7.50
2023-04-27T18:34:09.605Z,9.38
2023-04-27T18:36:36.205Z,10.18
2023-04-27T18:39:02.888Z,9.05
2023-04-27T18:41:29.460Z,9.32
2023-04-27T18:44:03.809Z,8.35
2023-04-27T18:46:30.468Z,8.35
2023-04-27T18:48:57.024Z,9.10
2023-04-27T18:51:23.758Z,10.27
2023-04-27T18:53:50.334Z,8.20
2023-04-27T18:56:16.872Z,7.63
2023-04-27T18:58:43.442Z,7.78
2023-04-27T19:01:18.334Z,11.57
2023-04-27T19:03:45.022Z,9.10
2023-04-27T19:06:13.220Z,7.05
2023-04-27T19:08:39.808Z,7.60
2023-04-27T19:11:06.455Z,7.25
2023-04-27T19:13:33.016Z,11.52
2023-04-27T19:15:59.578Z,8.48
2023-04-27T19:18:27.592Z,5.60
2023-04-27T19:20:54.204Z,8.70
2023-04-27T19:23:20.772Z,9.13
2023-04-27T19:25:47.495Z,7.55
2023-04-27T19:28:15.971Z,7.47
2023-04-27T19:30:42.608Z,6.85
2023-04-27T19:33:09.245Z,8.43
2023-04-27T19:35:37.265Z,7.65
2023-04-27T19:38:04.106Z,6.05
2023-04-27T19:40:30.724Z,8.30
2023-04-27T19:42:57.393Z,6.95
2023-04-27T19:45:24.131Z,8.80
2023-04-27T19:47:50.763Z,7.57
2023-04-27T19:50:17.808Z,7.15
2023-04-27T19:52:45.832Z,6.45
2023-04-27T19:55:12.823Z,6.82
2023-04-27T19:57:39.470Z,6.85
2023-04-27T20:00:07.228Z,7.38
2023-04-27T20:02:39.835Z,6.55
2023-04-27T20:05:07.005Z,8.35
2023-04-27T20:07:33.939Z,8.05
2023-04-27T20:10:01.899Z,6.93
2023-04-27T20:12:47.527Z,8.52
2023-04-27T20:15:15.133Z,9.95
2023-04-27T20:17:41.984Z,6.43
2023-04-27T20:20:09.745Z,11.93
2023-04-27T20:22:36.519Z,8.05
2023-04-27T20:25:05.202Z,9.10
2023-04-27T20:27:32.273Z,7.78
2023-04-27T20:29:58.891Z,8.88
2023-04-27T20:32:25.409Z,9.15
2023-04-27T20:34:52.157Z,8.80
2023-04-27T20:37:18.765Z,9.43
2023-04-27T20:39:45.315Z,9.02
2023-04-27T20:42:13.400Z,8.93
2023-04-27T20:44:39.972Z,7.82
2023-04-27T20:47:06.608Z,8.00
2023-04-27T20:49:35.400Z,7.50
2023-04-27T20:52:02.644Z,8.27
2023-04-27T20:54:29.724Z,10.48
2023-04-27T20:56:56.367Z,9.63
2023-04-27T20:59:24.413Z,9.52
2023-04-27T21:01:50.973Z,6.95
2023-04-27T21:04:17.781Z,7.68
2023-04-27T21:06:44.588Z,11.23
2023-04-27T21:09:11.239Z,14.82
2023-04-27T21:11:37.807Z,7.28
2023-04-27T21:14:04.356Z,8.05
2023-04-27T21:16:32.349Z,10.13
2023-04-27T21:18:59.025Z,7.80
2023-04-27T21:21:25.669Z,9.40
2023-04-27T21:24:04.057Z,6.43
2023-04-27T21:26:33.756Z,8.70
2023-04-27T21:29:00.386Z,7.00
2023-04-27T21:31:27.058Z,8.32
2023-04-27T21:33:55.145Z,6.70
2023-04-27T21:36:21.800Z,8.35
2023-04-27T21:38:48.340Z,8.00
2023-04-27T21:41:14.988Z,8.48
2023-04-27T21:43:41.800Z,6.38
2023-04-27T21:46:08.511Z,8.13
2023-04-27T21:48:35.176Z,10.88
2023-04-27T21:51:03.329Z,7.43
2023-04-27T21:53:30.437Z,8.98
2023-04-27T21:55:57.209Z,7.55
2023-04-27T21:58:23.949Z,8.80
2023-04-27T22:00:50.618Z,11.05
2023-04-27T22:03:17.424Z,10.90
2023-04-27T22:05:44.193Z,10.55
2023-04-27T22:08:12.129Z,8.00
2023-04-27T22:10:38.790Z,7.95
2023-04-27T22:13:17.814Z,10.70
2023-04-27T22:15:45.408Z,9.68
2023-04-27T22:18:12.111Z,10.10
2023-04-27T22:20:38.901Z,7.38
2023-04-27T22:23:05.553Z,10.40
2023-04-27T22:25:34.283Z,7.38
2023-04-27T22:28:00.966Z,10.65
2023-04-27T22:30:27.730Z,11.60
2023-04-27T22:32:55.451Z,9.05
2023-04-27T22:35:27.121Z,8.50
2023-04-27T22:37:54.799Z,10.80
2023-04-27T22:40:21.511Z,11.48
2023-04-27T22:42:49.584Z,9.35
2023-04-27T22:45:16.406Z,9.15
2023-04-27T22:47:43.254Z,8.23
2023-04-27T22:50:10.925Z,9.35
2023-04-27T22:52:37.561Z,9.32
2023-04-27T22:55:04.860Z,7.97
2023-04-27T22:57:31.412Z,8.02
2023-04-27T22:59:59.381Z,9.38
2023-04-27T23:02:26.237Z,12.45
2023-04-27T23:04:52.953Z,9.40
2023-04-27T23:07:19.567Z,9.38
2023-04-27T23:09:46.103Z,12.18
2023-04-27T23:12:12.704Z,8.27
2023-04-27T23:14:39.299Z,9.70
2023-04-27T23:17:07.377Z,11.15
2023-04-27T23:19:34.071Z,13.13
2023-04-27T23:22:01.010Z,14.60
2023-04-27T23:24:27.591Z,10.55
2023-04-27T23:26:54.281Z,12.95
2023-04-27T23:29:20.899Z,12.93
2023-04-27T23:31:47.467Z,11.30
2023-04-27T23:34:15.641Z,10.73
2023-04-27T23:36:42.438Z,14.57
2023-04-27T23:39:09.067Z,11.10
2023-04-27T23:41:35.674Z,12.85
2023-04-27T23:44:02.277Z,18.02
2023-04-27T23:46:35.331Z,12.73
2023-04-27T23:49:15.116Z,12.13
2023-04-27T23:51:51.686Z,12.98
2023-04-27T23:54:31.089Z,11.57
2023-04-27T23:57:04.631Z,15.23
2023-04-27T23:59:44.109Z,13.05
